Time;durP1;ratioP1;P1;durP2;ratioP2;P2;SDS_P1;SDS_P2;PMS_P1;PMS_P2;Temp;Humidity;BMP_temperature;BMP_pressure;BME280_temperature;BME280_humidity;BME280_pressure;Samples;Min_cycle;Max_cycle;Signal;HPM_P1;HPM_P2
2023/09/08 00:02:19;;;;;;;5.60;4.25;;;22.10;99.90;;;;;;5050665;28;20169;-73
2023/09/08 00:04:44;;;;;;;6.60;4.13;;;21.90;99.90;;;;;;5050314;28;20618;-73
2023/09/08 00:07:10;;;;;;;8.68;4.18;;;22.00;99.90;;;;;;5050495;28;20209;-73
2023/09/08 00:09:35;;;;;;;6.95;4.50;;;21.90;99.90;;;;;;5050552;28;20596;-73
2023/09/08 00:12:01;;;;;;;7.50;4.40;;;22.50;99.90;;;;;;5050684;28;20623;-73
2023/09/08 00:14:27;;;;;;;7.10;4.43;;;21.80;99.90;;;;;;5050880;28;20164;-73
2023/09/08 00:16:56;;;;;;;9.23;4.22;;;;;;;;;;5050299;28;20199;-73
2023/09/08 00:19:22;;;;;;;6.30;4.13;;;21.80;99.90;;;;;;5050609;28;20165;-73
2023/09/08 00:21:49;;;;;;;7.10;4.15;;;;;;;;;;5050281;28;20238;-73
2023/09/08 00:24:15;;;;;;;5.57;3.95;;;21.80;99.90;;;;;;5050299;28;20296;-73
2023/09/08 00:26:41;;;;;;;6.95;4.43;;;21.70;99.90;;;;;;5050564;28;20175;-73
2023/09/08 00:29:06;;;;;;;5.78;4.00;;;21.60;99.90;;;;;;5048917;28;20566;-74
2023/09/08 00:31:32;;;;;;;8.05;4.45;;;21.80;99.90;;;;;;5050327;28;20253;-74
2023/09/08 00:33:58;;;;;;;5.55;4.38;;;21.50;99.90;;;;;;5050170;28;20662;-74
2023/09/08 00:36:24;;;;;;;9.80;4.43;;;21.60;99.90;;;;;;5054055;28;20277;-73
2023/09/08 00:38:49;;;;;;;7.22;4.47;;;21.70;99.90;;;;;;5054350;28;20196;-74
2023/09/08 00:41:15;;;;;;;5.00;4.28;;;21.60;99.90;;;;;;5058122;28;20219;-74
2023/09/08 00:43:40;;;;;;;9.18;4.80;;;21.60;99.90;;;;;;5049987;28;20225;-74
2023/09/08 00:46:07;;;;;;;5.75;4.20;;;21.60;99.90;;;;;;5049910;28;20216;-75
2023/09/08 00:48:34;;;;;;;8.10;4.70;;;21.50;99.90;;;;;;5049915;28;20231;-75
2023/09/08 00:50:59;;;;;;;4.53;4.07;;;21.50;99.90;;;;;;5050184;28;20200;-75
2023/09/08 00:53:25;;;;;;;7.40;4.35;;;21.40;99.90;;;;;;5049919;28;20640;-74
2023/09/08 00:55:51;;;;;;;6.50;4.45;;;21.30;99.90;;;;;;5050150;28;20576;-74
2023/09/08 00:58:17;;;;;;;7.00;4.50;;;21.20;99.90;;;;;;5049789;28;20245;-75
2023/09/08 01:00:44;;;;;;;6.05;4.25;;;21.20;99.90;;;;;;5050020;28;20730;-75
2023/09/08 01:03:11;;;;;;;7.43;5.00;;;21.20;99.90;;;;;;5050344;28;20304;-73
2023/09/08 01:05:37;;;;;;;6.30;5.15;;;21.00;99.90;;;;;;5053434;28;20240;-73
2023/09/08 01:08:03;;;;;;;7.55;5.30;;;21.10;99.90;;;;;;5053534;28;20698;-73
2023/09/08 01:10:29;;;;;;;7.90;5.22;;;21.00;99.90;;;;;;5052167;28;20177;-73
2023/09/08 01:12:55;;;;;;;8.10;5.60;;;;;;;;;;5053658;28;20549;-73
2023/09/08 01:15:20;;;;;;;8.80;4.97;;;21.20;99.90;;;;;;5053503;28;20630;-73
2023/09/08 01:17:46;;;;;;;11.18;5.00;;;21.40;99.90;;;;;;5053295;28;20180;-73
2023/09/08 01:20:22;;;;;;;9.15;5.25;;;21.10;99.90;;;;;;5053399;28;20656;-73
2023/09/08 01:23:24;;;;;;;6.75;5.13;;;21.10;99.90;;;;;;5052084;28;20197;-73
2023/09/08 01:25:54;;;;;;;7.07;4.80;;;20.90;99.90;;;;;;5053197;28;20215;-73
2023/09/08 01:28:21;;;;;;;9.43;5.07;;;21.00;99.90;;;;;;5053218;28;20240;-73
2023/09/08 01:30:48;;;;;;;7.50;5.10;;;21.10;99.90;;;;;;5051874;28;20184;-73
2023/09/08 01:33:14;;;;;;;9.30;5.00;;;21.10;99.90;;;;;;5047517;28;20592;-73
2023/09/08 01:35:39;;;;;;;7.13;4.72;;;21.00;99.90;;;;;;5042158;28;20597;-73
2023/09/08 01:38:05;;;;;;;8.10;4.95;;;20.90;99.90;;;;;;5053131;28;20703;-73
2023/09/08 01:40:31;;;;;;;8.32;5.18;;;20.90;99.90;;;;;;5051852;28;20624;-73
2023/09/08 01:42:56;;;;;;;8.70;5.00;;;20.90;99.90;;;;;;5058560;28;20192;-73
2023/09/08 01:45:22;;;;;;;7.43;4.90;;;20.80;99.90;;;;;;5072572;28;20666;-73
2023/09/08 01:47:47;;;;;;;7.72;4.72;;;20.80;99.90;;;;;;5060536;28;20248;-73
2023/09/08 01:50:14;;;;;;;8.20;5.00;;;20.90;99.90;;;;;;5057866;28;20231;-73
2023/09/08 01:52:40;;;;;;;6.95;4.85;;;20.80;99.90;;;;;;5053228;28;20186;-73
2023/09/08 01:55:07;;;;;;;6.55;4.78;;;20.90;99.90;;;;;;5052553;28;20565;-73
2023/09/08 01:57:33;;;;;;;9.13;5.20;;;20.90;99.90;;;;;;5063481;28;20172;-73
2023/09/08 01:59:58;;;;;;;7.25;4.85;;;20.80;99.90;;;;;;5052558;28;20747;-73
2023/09/08 02:02:24;;;;;;;7.15;5.30;;;20.60;99.90;;;;;;5052505;28;20165;-73
2023/09/08 02:04:49;;;;;;;5.50;4.63;;;20.70;99.90;;;;;;5051146;28;20254;-73
2023/09/08 02:07:15;;;;;;;10.65;5.60;;;21.10;99.90;;;;;;5052660;28;20528;-73
2023/09/08 02:09:42;;;;;;;9.43;5.55;;;21.00;99.90;;;;;;5052350;28;20184;-73
2023/09/08 02:12:07;;;;;;;7.38;5.03;;;20.70;99.90;;;;;;5052469;28;20188;-73
2023/09/08 02:14:33;;;;;;;7.30;5.15;;;20.70;99.90;;;;;;5051951;28;20640;-73
2023/09/08 02:16:58;;;;;;;8.05;5.20;;;20.70;99.90;;;;;;5052323;28;20166;-72
2023/09/08 02:19:24;;;;;;;7.63;4.80;;;20.80;99.90;;;;;;5052410;28;20182;-73
2023/09/08 02:21:50;;;;;;;8.70;4.97;;;20.70;99.90;;;;;;5052298;28;20590;-73
2023/09/08 02:24:15;;;;;;;8.38;4.60;;;20.70;99.90;;;;;;5052000;28;20274;-73
2023/09/08 02:26:41;;;;;;;6.32;4.93;;;20.70;99.90;;;;;;5052152;28;20248;-73
2023/09/08 02:29:07;;;;;;;7.43;4.82;;;20.60;99.90;;;;;;5051848;28;20183;-73
2023/09/08 02:31:33;;;;;;;6.75;4.63;;;20.60;99.90;;;;;;5051994;28;20524;-73
2023/09/08 02:33:59;;;;;;;6.80;4.68;;;;;;;;;;5051915;28;20169;-72
2023/09/08 02:36:26;;;;;;;8.25;4.95;;;20.60;99.90;;;;;;5052077;28;20187;-73
2023/09/08 02:38:52;;;;;;;7.35;4.72;;;20.60;99.90;;;;;;5050648;28;20283;-74
2023/09/08 02:41:18;;;;;;;10.88;4.82;;;20.80;99.90;;;;;;5052034;28;20627;-73
2023/09/08 02:43:44;;;;;;;9.40;5.22;;;20.60;99.90;;;;;;5062784;28;20223;-72
2023/09/08 02:46:10;;;;;;;8.63;5.10;;;20.60;99.90;;;;;;5062514;28;20208;-72
2023/09/08 02:48:35;;;;;;;12.13;4.70;;;20.60;99.90;;;;;;5050844;28;20625;-72
2023/09/08 02:51:01;;;;;;;9.35;5.03;;;20.50;99.90;;;;;;5042221;28;20184;-72
2023/09/08 02:53:28;;;;;;;8.05;4.78;;;20.50;99.90;;;;;;5062470;28;20191;-72
2023/09/08 02:55:55;;;;;;;5.50;4.35;;;20.50;99.90;;;;;;5055838;28;20225;-72
2023/09/08 02:58:20;;;;;;;6.43;4.63;;;20.50;99.90;;;;;;5053510;28;20176;-72
2023/09/08 03:00:46;;;;;;;6.60;4.30;;;20.60;99.90;;;;;;5071129;28;20520;-72
2023/09/08 03:03:12;;;;;;;9.32;4.72;;;20.60;99.90;;;;;;5064336;28;20173;-72
2023/09/08 03:05:37;;;;;;;6.60;4.07;;;20.50;99.90;;;;;;5050953;28;20396;-72
2023/09/08 03:08:04;;;;;;;8.23;4.47;;;20.50;99.90;;;;;;5070055;28;20171;-73
2023/09/08 03:10:33;;;;;;;6.15;4.25;;;20.30;99.90;;;;;;5070822;28;20173;-72
2023/09/08 03:13:02;;;;;;;6.00;4.25;;;20.50;99.90;;;;;;5065261;28;20170;-72
2023/09/08 03:15:28;;;;;;;9.88;4.53;;;20.40;99.90;;;;;;5052178;28;20177;-72
2023/09/08 03:17:54;;;;;;;10.93;5.18;;;20.40;99.90;;;;;;5040015;28;20514;-72
2023/09/08 03:20:20;;;;;;;7.80;5.00;;;20.40;99.90;;;;;;5055431;28;20181;-72
2023/09/08 03:22:49;;;;;;;5.65;4.20;;;20.40;99.90;;;;;;5067888;28;20168;-72
2023/09/08 03:25:15;;;;;;;5.95;4.60;;;20.40;99.90;;;;;;5050786;28;20232;-73
2023/09/08 03:27:40;;;;;;;10.00;5.15;;;20.40;99.90;;;;;;5050174;28;20580;-72
2023/09/08 03:30:07;;;;;;;8.88;4.30;;;20.40;99.90;;;;;;5051089;28;20173;-72
2023/09/08 03:32:33;;;;;;;7.75;4.47;;;20.40;99.90;;;;;;5051031;28;20264;-73
2023/09/08 03:34:59;;;;;;;7.43;4.43;;;;;;;;;;5070722;28;20251;-73
2023/09/08 03:37:26;;;;;;;6.85;4.90;;;20.40;99.90;;;;;;5071069;28;20694;-73
2023/09/08 03:39:52;;;;;;;5.40;3.95;;;20.40;99.90;;;;;;5068908;28;20168;-73
2023/09/08 03:42:18;;;;;;;7.93;4.43;;;20.40;99.90;;;;;;5051098;28;20181;-73
2023/09/08 03:44:44;;;;;;;4.57;3.97;;;;;;;;;;5050792;28;20286;-73
2023/09/08 03:47:10;;;;;;;4.45;4.00;;;20.40;99.90;;;;;;5050821;28;20197;-73
2023/09/08 03:49:36;;;;;;;6.47;4.28;;;20.40;99.90;;;;;;5050976;28;20294;-73
2023/09/08 03:52:02;;;;;;;9.65;4.78;;;20.40;99.90;;;;;;5051122;28;20184;-73
2023/09/08 03:54:27;;;;;;;4.68;4.13;;;20.40;99.90;;;;;;5050781;28;20656;-73
2023/09/08 03:56:53;;;;;;;7.20;4.05;;;20.30;99.90;;;;;;5050725;28;20319;-73
2023/09/08 03:59:19;;;;;;;6.20;4.25;;;20.30;99.90;;;;;;5050510;28;20169;-73
2023/09/08 04:01:44;;;;;;;6.18;4.18;;;20.40;99.90;;;;;;5050445;28;20172;-73
2023/09/08 04:04:10;;;;;;;4.68;3.95;;;20.40;99.90;;;;;;5050723;28;20192;-72
2023/09/08 04:06:35;;;;;;;6.68;4.20;;;20.30;99.90;;;;;;5050466;28;20544;-74
2023/09/08 04:09:01;;;;;;;5.85;4.38;;;20.30;99.90;;;;;;5049411;28;20161;-74
2023/09/08 04:11:27;;;;;;;6.70;3.65;;;20.30;99.90;;;;;;5050616;28;20594;-74
2023/09/08 04:13:52;;;;;;;6.72;4.03;;;20.40;99.90;;;;;;5050739;28;20172;-74
2023/09/08 04:16:18;;;;;;;5.80;4.15;;;20.30;99.90;;;;;;5050540;28;20177;-74
2023/09/08 04:18:44;;;;;;;9.82;4.10;;;20.40;99.90;;;;;;5050545;28;20169;-74
2023/09/08 04:21:10;;;;;;;6.05;3.95;;;20.40;99.90;;;;;;5050661;28;20640;-74
2023/09/08 04:23:36;;;;;;;6.05;4.07;;;20.40;99.90;;;;;;5050415;28;20177;-74
2023/09/08 04:26:02;;;;;;;5.10;3.78;;;20.40;99.90;;;;;;5050478;28;20204;-74
2023/09/08 04:28:27;;;;;;;6.50;4.10;;;20.40;99.90;;;;;;5050562;28;20177;-74
2023/09/08 04:30:53;;;;;;;7.18;4.15;;;20.40;99.90;;;;;;5050418;28;20278;-74
2023/09/08 04:33:19;;;;;;;5.75;4.10;;;20.40;99.90;;;;;;5050523;28;20169;-74
2023/09/08 04:35:44;;;;;;;6.13;3.58;;;20.40;99.90;;;;;;5049070;28;20178;-74
2023/09/08 04:38:11;;;;;;;6.88;4.22;;;20.40;99.90;;;;;;5052159;28;20667;-74
2023/09/08 04:40:37;;;;;;;11.05;4.47;;;;;;;;;;5054578;28;20181;-74
2023/09/08 04:43:02;;;;;;;4.80;3.80;;;20.40;99.90;;;;;;5054039;28;20749;-74
2023/09/08 04:45:28;;;;;;;8.25;3.70;;;20.40;99.90;;;;;;5054078;28;20253;-74
2023/09/08 04:47:53;;;;;;;5.22;3.80;;;20.40;99.90;;;;;;5054186;28;20169;-74
2023/09/08 04:50:19;;;;;;;7.35;4.03;;;20.30;99.90;;;;;;5054098;28;20266;-74
2023/09/08 04:52:45;;;;;;;7.20;3.95;;;20.40;99.90;;;;;;5054006;28;20207;-74
2023/09/08 04:55:10;;;;;;;6.68;3.88;;;20.30;99.90;;;;;;5053702;28;20502;-74
2023/09/08 04:57:36;;;;;;;7.85;4.10;;;20.30;99.90;;;;;;5053930;28;20327;-74
2023/09/08 05:00:02;;;;;;;5.22;4.18;;;20.40;99.90;;;;;;5053930;28;20177;-74
2023/09/08 05:02:28;;;;;;;6.32;4.28;;;20.40;99.90;;;;;;5054715;28;20180;-74
2023/09/08 05:04:54;;;;;;;6.72;3.85;;;20.40;99.90;;;;;;5056113;28;20213;-74
2023/09/08 05:07:19;;;;;;;5.72;3.88;;;20.30;99.90;;;;;;5073616;28;20169;-74
2023/09/08 05:09:45;;;;;;;6.25;4.00;;;20.30;99.90;;;;;;5070823;28;20184;-74
2023/09/08 05:12:10;;;;;;;5.45;4.00;;;20.20;99.90;;;;;;5056221;28;20235;-74
2023/09/08 05:14:37;;;;;;;6.30;3.88;;;;;;;;;;5071842;28;20181;-74
2023/09/08 05:17:03;;;;;;;5.60;4.28;;;20.20;99.90;;;;;;5052971;28;20181;-72
2023/09/08 05:19:28;;;;;;;12.07;4.22;;;20.20;99.90;;;;;;5053476;28;20176;-71
2023/09/08 05:21:55;;;;;;;9.65;4.40;;;20.30;99.90;;;;;;5053452;28;20177;-72
2023/09/08 05:24:21;;;;;;;7.95;4.28;;;20.30;99.90;;;;;;5049548;28;20537;-72
2023/09/08 05:26:47;;;;;;;8.52;4.18;;;20.40;99.90;;;;;;5041869;28;20713;-72
2023/09/08 05:29:12;;;;;;;6.30;4.53;;;20.40;99.90;;;;;;5053159;28;20173;-72
2023/09/08 05:31:38;;;;;;;6.82;4.28;;;20.40;99.90;;;;;;5039151;28;20552;-72
2023/09/08 05:34:04;;;;;;;4.97;4.30;;;20.30;99.90;;;;;;5047689;28;20184;-72
2023/09/08 05:36:30;;;;;;;8.13;4.22;;;20.40;99.90;;;;;;5053026;28;20644;-72
2023/09/08 05:38:56;;;;;;;7.65;4.25;;;20.40;99.90;;;;;;5052990;28;20190;-71
2023/09/08 05:41:22;;;;;;;10.48;4.38;;;20.40;99.90;;;;;;5053185;28;20655;-72
2023/09/08 05:43:48;;;;;;;7.15;4.00;;;20.30;99.90;;;;;;5051236;28;20320;-72
2023/09/08 05:46:13;;;;;;;5.03;4.13;;;20.30;99.90;;;;;;5052821;28;20220;-72
2023/09/08 05:48:39;;;;;;;7.35;4.75;;;20.20;99.90;;;;;;5052735;28;20256;-74
2023/09/08 05:51:06;;;;;;;8.05;4.78;;;20.20;99.90;;;;;;5052303;28;20201;-73
2023/09/08 05:53:32;;;;;;;10.05;4.40;;;;;;;;;;5053191;28;20209;-73
2023/09/08 05:55:58;;;;;;;7.60;4.50;;;20.30;99.90;;;;;;5052768;28;20169;-72
2023/09/08 05:58:27;;;;;;;8.30;4.40;;;22.20;99.90;;;;;;5051366;28;20170;-73
2023/09/08 06:00:55;;;;;;;10.68;4.40;;;20.30;99.90;;;;;;5052858;28;20173;-73
2023/09/08 06:03:21;;;;;;;6.07;4.50;;;20.30;99.90;;;;;;5052479;28;20169;-73
2023/09/08 06:05:46;;;;;;;11.32;4.50;;;20.30;99.90;;;;;;5052565;28;20308;-72
2023/09/08 06:08:12;;;;;;;5.78;3.85;;;20.30;99.90;;;;;;5052595;28;20181;-73
2023/09/08 06:10:38;;;;;;;9.18;4.72;;;20.40;99.90;;;;;;5051497;28;20242;-72
2023/09/08 06:13:04;;;;;;;7.93;4.25;;;20.40;99.90;;;;;;5050927;28;20199;-72
2023/09/08 06:15:30;;;;;;;7.80;4.63;;;20.50;99.90;;;;;;5050604;28;20902;-73
2023/09/08 06:17:55;;;;;;;7.30;4.25;;;20.50;99.90;;;;;;5058841;28;20562;-73
2023/09/08 06:20:21;;;;;;;8.32;4.40;;;20.50;99.90;;;;;;5046169;28;20546;-73
2023/09/08 06:22:47;;;;;;;6.93;4.30;;;20.50;99.90;;;;;;5057391;28;20169;-72
2023/09/08 06:25:13;;;;;;;8.13;4.50;;;20.50;99.90;;;;;;5061580;28;20223;-73
2023/09/08 06:27:39;;;;;;;8.75;4.85;;;20.50;99.90;;;;;;5048570;28;20187;-73
2023/09/08 06:30:05;;;;;;;6.25;4.57;;;20.60;99.90;;;;;;5050044;28;20170;-73
2023/09/08 06:32:31;;;;;;;8.48;4.47;;;20.60;99.90;;;;;;5050183;28;20244;-72
2023/09/08 06:34:56;;;;;;;8.48;4.72;;;20.60;99.90;;;;;;5050016;28;20576;-73
2023/09/08 06:37:22;;;;;;;8.38;4.53;;;20.60;99.90;;;;;;5048835;28;20165;-73
2023/09/08 06:39:47;;;;;;;5.47;4.18;;;20.60;99.90;;;;;;5050129;28;20370;-73
2023/09/08 06:42:13;;;;;;;4.68;4.15;;;20.60;99.90;;;;;;5050756;28;20271;-73
2023/09/08 06:44:39;;;;;;;12.20;4.95;;;;;;;;;;5051617;28;20258;-72
2023/09/08 06:47:06;;;;;;;7.95;4.80;;;20.70;99.90;;;;;;5051106;28;20265;-73
2023/09/08 06:49:32;;;;;;;10.55;4.97;;;20.60;99.90;;;;;;5056106;28;20180;-73
2023/09/08 06:51:58;;;;;;;7.25;4.60;;;20.70;99.90;;;;;;5064553;28;20184;-73
2023/09/08 06:54:24;;;;;;;6.75;4.65;;;20.80;99.90;;;;;;5070125;28;20179;-73
2023/09/08 06:56:49;;;;;;;8.45;4.75;;;20.90;99.90;;;;;;5071760;28;20176;-73
2023/09/08 06:59:15;;;;;;;7.03;4.53;;;21.00;99.90;;;;;;5053014;28;20517;-72
2023/09/08 07:01:40;;;;;;;4.75;4.10;;;21.00;99.90;;;;;;5050548;28;20218;-73
2023/09/08 07:04:06;;;;;;;10.35;4.90;;;21.10;99.90;;;;;;5051455;28;20165;-72
2023/09/08 07:06:32;;;;;;;7.50;4.55;;;21.20;99.90;;;;;;5051645;28;20208;-73
2023/09/08 07:08:57;;;;;;;7.90;4.32;;;21.20;99.90;;;;;;5051557;28;20213;-73
2023/09/08 07:11:23;;;;;;;8.38;5.13;;;21.30;99.90;;;;;;5051329;28;20173;-73
2023/09/08 07:13:49;;;;;;;8.57;4.82;;;21.40;99.90;;;;;;5051441;28;20179;-73
2023/09/08 07:16:14;;;;;;;10.25;5.40;;;21.40;99.90;;;;;;5051304;28;20663;-72
2023/09/08 07:18:40;;;;;;;8.85;4.82;;;21.40;99.90;;;;;;5060784;28;20176;-72
2023/09/08 07:21:06;;;;;;;10.02;5.20;;;21.50;99.90;;;;;;5051672;28;20177;-72
2023/09/08 07:23:31;;;;;;;8.73;4.82;;;21.60;99.90;;;;;;5061250;28;20606;-72
2023/09/08 07:25:57;;;;;;;8.82;5.22;;;21.60;99.90;;;;;;5051059;28;20215;-72
2023/09/08 07:28:23;;;;;;;8.90;5.40;;;21.70;99.90;;;;;;5050840;28;20208;-72
2023/09/08 07:30:48;;;;;;;9.35;5.57;;;21.60;99.90;;;;;;5050905;28;20271;-73
2023/09/08 07:33:14;;;;;;;10.65;5.25;;;21.70;99.90;;;;;;5063707;28;20177;-71
2023/09/08 07:35:40;;;;;;;10.15;5.20;;;21.70;99.90;;;;;;5050511;28;20711;-73
2023/09/08 07:38:06;;;;;;;16.98;6.22;;;21.90;99.90;;;;;;5050921;28;20176;-73
2023/09/08 07:40:35;;;;;;;12.02;5.18;;;21.80;99.90;;;;;;5053490;28;20671;-72
2023/09/08 07:43:01;;;;;;;10.35;5.40;;;21.90;99.90;;;;;;5057187;28;20219;-73
2023/09/08 07:45:27;;;;;;;12.45;5.65;;;22.10;99.90;;;;;;5055025;28;20209;-73
2023/09/08 07:47:52;;;;;;;13.50;5.97;;;22.10;99.90;;;;;;5068878;28;20227;-72
2023/09/08 07:50:20;;;;;;;12.98;4.85;;;22.20;99.90;;;;;;5069405;28;20734;-73
2023/09/08 07:52:46;;;;;;;14.57;5.68;;;22.30;99.90;;;;;;5070030;28;20226;-74
2023/09/08 07:55:12;;;;;;;11.43;4.68;;;22.40;99.90;;;;;;5068464;28;20180;-73
2023/09/08 07:57:39;;;;;;;8.50;5.15;;;22.50;99.90;;;;;;5059462;28;20217;-74
2023/09/08 08:00:05;;;;;;;11.60;5.60;;;22.70;99.90;;;;;;5049317;28;20176;-73
2023/09/08 08:02:31;;;;;;;12.88;5.93;;;22.60;99.90;;;;;;5049424;28;20176;-72
2023/09/08 08:04:57;;;;;;;7.18;5.10;;;22.70;99.90;;;;;;5051925;28;20212;-72
2023/09/08 08:07:22;;;;;;;9.32;5.07;;;22.70;99.90;;;;;;5061923;28;20378;-72
2023/09/08 08:09:48;;;;;;;14.80;5.30;;;22.80;99.90;;;;;;5062765;28;20537;-73
2023/09/08 08:12:14;;;;;;;10.88;5.22;;;22.90;99.90;;;;;;5068554;28;20650;-73
2023/09/08 08:14:39;;;;;;;8.73;6.03;;;23.00;99.90;;;;;;5073034;28;20189;-73
2023/09/08 08:17:05;;;;;;;12.68;6.30;;;23.00;99.90;;;;;;5060674;28;20914;-72
2023/09/08 08:19:31;;;;;;;11.38;5.82;;;23.00;99.90;;;;;;5054538;28;20165;-73
2023/09/08 08:21:57;;;;;;;13.32;5.90;;;23.20;99.90;;;;;;5054569;28;20165;-73
2023/09/08 08:24:23;;;;;;;12.70;6.05;;;23.20;99.90;;;;;;5055458;28;20189;-74
2023/09/08 08:26:51;;;;;;;15.77;6.05;;;23.20;99.90;;;;;;5065758;28;20251;-73
2023/09/08 08:29:17;;;;;;;11.50;6.20;;;23.20;99.90;;;;;;5054158;28;20173;-73
2023/09/08 08:31:43;;;;;;;15.55;6.57;;;23.30;99.90;;;;;;5054514;28;20883;-73
2023/09/08 08:34:09;;;;;;;12.05;6.20;;;23.40;99.90;;;;;;5054580;28;20168;-74
2023/09/08 08:36:35;;;;;;;17.48;6.50;;;23.50;99.90;;;;;;5054278;28;20168;-74
2023/09/08 08:39:00;;;;;;;10.27;6.53;;;23.50;99.90;;;;;;5055124;28;20185;-74
2023/09/08 08:41:26;;;;;;;10.07;6.60;;;23.60;99.90;;;;;;5054210;28;20200;-75
2023/09/08 08:43:53;;;;;;;10.30;6.20;;;23.60;99.90;;;;;;5052937;28;20282;-74
2023/09/08 08:46:22;;;;;;;12.38;6.60;;;23.70;99.90;;;;;;5068799;28;20208;-74
2023/09/08 08:48:49;;;;;;;12.75;6.60;;;23.80;99.90;;;;;;5073783;28;20192;-73
2023/09/08 08:51:18;;;;;;;14.88;6.35;;;23.80;99.90;;;;;;5074126;28;20669;-73
2023/09/08 08:53:43;;;;;;;16.63;6.05;;;23.90;99.90;;;;;;5072843;28;20179;-74
2023/09/08 08:56:10;;;;;;;15.32;6.25;;;24.00;99.90;;;;;;5070401;28;20181;-73
2023/09/08 08:58:38;;;;;;;14.70;7.22;;;24.10;99.90;;;;;;5072976;28;20237;-74
2023/09/08 09:01:06;;;;;;;13.48;5.93;;;24.20;99.90;;;;;;5073652;28;20187;-74
2023/09/08 09:03:34;;;;;;;13.15;6.18;;;24.30;99.90;;;;;;5074061;28;20651;-74
2023/09/08 09:06:00;;;;;;;13.38;6.00;;;24.50;99.90;;;;;;5073745;28;20223;-73
2023/09/08 09:08:27;;;;;;;16.38;5.53;;;24.40;99.90;;;;;;5073716;28;20175;-72
2023/09/08 09:10:53;;;;;;;12.07;5.00;;;24.40;99.90;;;;;;5073847;28;20578;-72
2023/09/08 09:13:19;;;;;;;9.43;4.90;;;24.50;99.90;;;;;;5073582;28;20635;-73
2023/09/08 09:15:46;;;;;;;10.90;4.88;;;24.50;99.90;;;;;;5073721;28;20160;-73
2023/09/08 09:18:12;;;;;;;14.35;5.53;;;24.70;99.90;;;;;;5073502;28;20160;-73
2023/09/08 09:20:38;;;;;;;10.70;5.15;;;25.00;99.90;;;;;;5057097;28;20195;-73
2023/09/08 09:23:03;;;;;;;9.43;5.38;;;25.10;99.90;;;;;;5053650;28;20187;-74
2023/09/08 09:25:30;;;;;;;9.15;5.03;;;25.00;99.90;;;;;;5052817;28;20315;-73
2023/09/08 09:28:01;;;;;;;8.68;4.75;;;25.10;99.90;;;;;;5053157;28;20189;-75
2023/09/08 09:30:28;;;;;;;8.60;4.30;;;25.40;99.90;;;;;;5053408;28;20183;-74
2023/09/08 09:33:04;;;;;;;12.00;4.95;;;25.50;99.90;;;;;;5053522;28;20165;-74
2023/09/08 09:35:47;;;;;;;8.63;4.88;;;25.60;99.90;;;;;;5053455;28;20165;-74
2023/09/08 09:38:13;;;;;;;10.07;4.97;;;;;;;;;;5053393;28;20550;-75
2023/09/08 09:40:39;;;;;;;12.27;5.40;;;25.60;99.90;;;;;;5053302;28;20176;-74
2023/09/08 09:43:06;;;;;;;16.30;5.25;;;25.80;99.90;;;;;;5053070;28;20217;-74
2023/09/08 09:45:33;;;;;;;12.18;4.95;;;26.40;99.90;;;;;;5051729;28;20239;-74
2023/09/08 09:47:59;;;;;;;12.50;4.78;;;26.50;99.90;;;;;;5053250;28;20649;-74
2023/09/08 09:50:33;;;;;;;12.77;5.60;;;26.80;99.90;;;;;;5053070;28;20257;-75
2023/09/08 09:53:13;;;;;;;15.63;5.47;;;27.40;99.90;;;;;;5052527;28;20608;-74
2023/09/08 09:55:44;;;;;;;11.18;5.40;;;27.90;1.00;;;;;;5052904;28;20169;-75
2023/09/08 09:58:10;;;;;;;12.25;5.43;;;28.80;71.10;;;;;;5052920;28;20256;-75
2023/09/08 10:00:37;;;;;;;11.23;5.28;;;29.00;1.00;;;;;;5053019;28;20200;-75
2023/09/08 10:03:04;;;;;;;9.90;5.00;;;29.30;1.00;;;;;;5053012;28;20177;-75
2023/09/08 10:05:30;;;;;;;9.20;4.72;;;29.60;1.00;;;;;;5052612;28;20296;-75
2023/09/08 10:07:56;;;;;;;7.45;4.68;;;29.50;1.00;;;;;;5051407;28;20260;-73
2023/09/08 10:10:22;;;;;;;8.07;4.50;;;29.80;99.90;;;;;;5051335;28;20173;-73
2023/09/08 10:12:57;;;;;;;8.00;4.85;;;30.40;99.90;;;;;;5051406;28;20173;-73
2023/09/08 10:15:24;;;;;;;11.25;5.30;;;30.60;96.40;;;;;;5052537;28;20172;-75
2023/09/08 10:17:57;;;;;;;9.15;4.45;;;30.70;1.00;;;;;;5052423;28;20172;-73
2023/09/08 10:20:28;;;;;;;9.57;5.28;;;30.70;1.00;;;;;;5052186;28;20203;-73
2023/09/08 10:23:08;;;;;;;9.82;4.88;;;30.40;99.90;;;;;;5058460;28;20173;-73
2023/09/08 10:25:37;;;;;;;7.07;4.80;;;30.60;99.90;;;;;;5052121;28;20244;-73
2023/09/08 10:28:04;;;;;;;12.13;5.05;;;30.50;99.00;;;;;;5063826;28;20188;-74
2023/09/08 10:30:31;;;;;;;8.73;5.35;;;30.60;1.00;;;;;;5072018;28;20175;-74
2023/09/08 10:32:57;;;;;;;10.45;5.80;;;;;;;;;;5072095;28;20179;-74
2023/09/08 10:35:23;;;;;;;12.18;5.28;;;29.90;1.00;;;;;;5065247;28;20719;-73
2023/09/08 10:37:49;;;;;;;7.57;5.03;;;29.60;1.00;;;;;;5067421;28;20176;-72
2023/09/08 10:40:26;;;;;;;14.63;5.43;;;29.60;1.00;;;;;;5052035;28;20169;-73
2023/09/08 10:43:11;;;;;;;11.68;5.15;;;29.90;1.00;;;;;;5051895;28;20235;-73
2023/09/08 10:45:36;;;;;;;16.83;6.28;;;29.80;1.00;;;;;;5051789;28;20219;-74
2023/09/08 10:48:03;;;;;;;12.10;5.75;;;29.80;1.00;;;;;;5054325;28;20164;-74
2023/09/08 10:50:34;;;;;;;18.23;5.20;;;30.50;1.00;;;;;;5061265;28;20181;-74
2023/09/08 10:53:16;;;;;;;13.38;5.75;;;31.20;1.00;;;;;;5051714;28;20663;-74
2023/09/08 10:55:53;;;;;;;15.40;5.57;;;31.60;99.90;;;;;;5055048;28;20180;-74
2023/09/08 10:58:32;;;;;;;10.82;5.07;;;31.90;99.90;;;;;;5031603;28;20173;-74
2023/09/08 11:01:01;;;;;;;10.27;5.38;;;32.60;99.90;;;;;;5039149;28;20565;-74
2023/09/08 11:03:38;;;;;;;10.93;4.68;;;32.80;1.00;;;;;;5051671;28;20252;-74
2023/09/08 11:06:05;;;;;;;9.90;4.60;;;32.80;1.00;;;;;;5050094;28;20305;-74
2023/09/08 11:08:33;;;;;;;6.68;4.15;;;33.60;1.00;;;;;;5051577;28;20195;-75
2023/09/08 11:11:00;;;;;;;9.23;4.32;;;33.20;1.00;;;;;;5051376;28;20200;-75
2023/09/08 11:13:26;;;;;;;9.77;4.38;;;33.50;99.90;;;;;;5058792;28;20196;-75
2023/09/08 11:15:55;;;;;;;12.27;4.93;;;33.60;89.30;;;;;;5070188;28;20187;-73
2023/09/08 11:18:30;;;;;;;9.05;4.40;;;33.90;1.00;;;;;;5068322;28;20660;-75
2023/09/08 11:20:57;;;;;;;7.55;4.53;;;34.30;1.00;;;;;;5056764;28;20256;-75
2023/09/08 11:23:24;;;;;;;9.05;4.32;;;34.00;1.00;;;;;;5071265;28;20174;-73
2023/09/08 11:25:51;;;;;;;11.45;4.05;;;33.80;1.00;;;;;;5056551;28;20239;-73
2023/09/08 11:28:17;;;;;;;9.50;3.33;;;33.80;99.90;;;;;;5050960;28;20168;-73
2023/09/08 11:30:46;;;;;;;10.98;3.60;;;33.90;99.90;;;;;;5055877;28;20187;-75
2023/09/08 11:33:16;;;;;;;14.52;3.38;;;34.10;99.90;;;;;;5057526;28;20183;-75
2023/09/08 11:35:44;;;;;;;5.88;3.22;;;34.60;1.00;;;;;;5067929;28;20261;-75
2023/09/08 11:38:11;;;;;;;8.25;2.97;;;35.00;1.00;;;;;;5071084;28;20627;-75
2023/09/08 11:40:37;;;;;;;13.80;3.10;;;35.10;1.00;;;;;;5070992;28;20258;-75
2023/09/08 11:43:03;;;;;;;6.75;2.80;;;35.40;1.00;;;;;;5070836;28;20243;-76
2023/09/08 11:45:30;;;;;;;7.85;2.60;;;35.80;99.90;;;;;;5058915;28;20204;-75
2023/09/08 11:47:56;;;;;;;9.68;2.90;;;35.80;99.90;;;;;;5070238;28;20180;-75
2023/09/08 11:50:23;;;;;;;6.15;2.55;;;35.80;99.90;;;;;;5058681;28;20721;-74
2023/09/08 11:52:50;;;;;;;4.85;2.72;;;35.70;99.90;;;;;;5051435;28;20631;-75
2023/09/08 11:55:17;;;;;;;7.05;3.13;;;34.60;99.90;;;;;;5050722;28;20184;-75
2023/09/08 11:57:47;;;;;;;16.85;3.40;;;34.70;99.90;;;;;;5053488;28;20173;-75
2023/09/08 12:00:17;;;;;;;8.65;3.13;;;35.00;99.90;;;;;;5050963;28;20263;-75
2023/09/08 12:02:43;;;;;;;10.20;3.22;;;35.30;99.90;;;;;;5050702;28;20757;-75
2023/09/08 12:05:13;;;;;;;9.73;3.17;;;35.70;95.80;;;;;;5049388;28;20212;-75
2023/09/08 12:07:39;;;;;;;10.32;3.03;;;35.80;99.90;;;;;;5051309;28;20172;-75
2023/09/08 12:10:11;;;;;;;8.70;2.83;;;36.00;20.80;;;;;;5050639;28;20219;-76
2023/09/08 12:12:53;;;;;;;7.05;3.05;;;35.80;1.00;;;;;;5050899;28;20165;-76
2023/09/08 12:15:32;;;;;;;6.30;3.35;;;35.90;1.00;;;;;;5049227;28;20226;-76
2023/09/08 12:17:58;;;;;;;6.60;3.00;;;36.50;1.00;;;;;;5051339;28;20179;-77
2023/09/08 12:20:24;;;;;;;9.38;3.10;;;;;;;;;;5057668;28;20344;-74
2023/09/08 12:22:51;;;;;;;8.48;3.10;;;36.50;1.00;;;;;;5054295;28;20556;-76
2023/09/08 12:25:17;;;;;;;6.97;3.00;;;36.50;1.00;;;;;;5050597;28;20295;-78
2023/09/08 12:27:44;;;;;;;9.40;3.03;;;36.90;1.00;;;;;;5068627;28;20202;-78
2023/09/08 12:30:17;;;;;;;7.70;2.58;;;36.80;1.00;;;;;;5070689;28;20176;-76
2023/09/08 12:32:47;;;;;;;8.35;3.20;;;36.30;1.00;;;;;;5070643;28;20172;-76
2023/09/08 12:35:13;;;;;;;8.68;3.60;;;36.70;1.00;;;;;;5068951;28;20176;-77
2023/09/08 12:37:39;;;;;;;19.70;3.30;;;36.70;1.00;;;;;;5063095;28;20630;-76
2023/09/08 12:40:05;;;;;;;17.85;4.13;;;36.80;1.00;;;;;;5050456;28;20173;-76
2023/09/08 12:42:31;;;;;;;11.30;3.40;;;;;;;;;;5055890;28;20176;-76
2023/09/08 12:44:57;;;;;;;13.48;3.83;;;37.50;1.00;;;;;;5070213;28;20230;-76
2023/09/08 12:47:23;;;;;;;16.88;5.03;;;37.10;1.00;;;;;;5062382;28;20754;-76
2023/09/08 12:49:48;;;;;;;7.82;5.15;;;36.90;1.00;;;;;;5060591;28;20203;-75